createdAt,value
2022-12-11T00:01:32.452Z,99306.63
2022-12-11T00:03:58.829Z,99311.63
2022-12-11T00:06:25.263Z,99303.59
2022-12-11T00:08:53.959Z,99304.94
2022-12-11T00:11:21.595Z,99312.34
2022-12-11T00:13:48.048Z,99306.59
2022-12-11T00:16:15.413Z,99312.19
2022-12-11T00:18:41.813Z,99313.00
2022-12-11T00:21:11.119Z,99313.06
2022-12-11T00:23:38.064Z,99312.44
2022-12-11T00:26:13.735Z,99319.94
2022-12-11T00:28:41.641Z,99314.34
2022-12-11T00:31:11.354Z,99322.44
2022-12-11T00:33:37.711Z,99319.19
2022-12-11T00:36:04.310Z,99319.00
2022-12-11T00:38:30.694Z,99322.59
2022-12-11T00:41:00.030Z,99313.59
2022-12-11T00:43:26.374Z,99321.38
2022-12-11T00:45:53.040Z,99320.44
2022-12-11T00:48:19.493Z,99312.38
2022-12-11T00:50:46.321Z,99311.78
2022-12-11T00:53:12.685Z,99315.34
2022-12-11T00:55:41.197Z,99309.94
2022-12-11T00:58:08.483Z,99312.00
2022-12-11T01:00:35.254Z,99309.66
2022-12-11T01:03:01.810Z,99313.44
2022-12-11T01:05:28.347Z,99315.66
2022-12-11T01:07:54.933Z,99311.78
2022-12-11T01:10:24.727Z,99316.75
2022-12-11T01:12:51.083Z,99310.69
2022-12-11T01:15:18.875Z,99324.09
2022-12-11T01:17:45.348Z,99320.47
2022-12-11T01:20:12.312Z,99320.38
2022-12-11T01:22:39.394Z,99322.25
2022-12-11T01:25:06.185Z,99323.56
2022-12-11T01:27:32.608Z,99323.38
2022-12-11T01:29:59.213Z,99323.91
2022-12-11T01:32:25.600Z,99323.25
2022-12-11T01:34:51.982Z,99330.81
2022-12-11T01:37:18.337Z,99328.78
2022-12-11T01:39:50.265Z,99328.66
2022-12-11T01:42:20.529Z,99334.38
2022-12-11T01:44:46.811Z,99334.19
2022-12-11T01:47:13.924Z,99331.47
2022-12-11T01:49:41.652Z,99324.88
2022-12-11T01:52:13.952Z,99330.25
2022-12-11T01:54:41.970Z,99333.03
2022-12-11T01:57:11.031Z,99324.28
2022-12-11T01:59:39.686Z,99329.16
2022-12-11T02:02:20.358Z,99325.97
2022-12-11T02:04:48.565Z,99322.28
2022-12-11T02:07:15.508Z,99327.59
2022-12-11T02:09:44.961Z,99327.66
2022-12-11T02:12:16.513Z,99326.41
2022-12-11T02:14:48.719Z,99328.06
2022-12-11T02:17:25.948Z,99324.34
2022-12-11T02:20:02.151Z,99322.03
2022-12-11T02:22:48.459Z,99318.38
2022-12-11T02:25:32.968Z,99319.19
2022-12-11T02:28:31.793Z,99310.84
2022-12-11T02:31:07.112Z,99310.25
2022-12-11T02:33:43.786Z,99317.72
2022-12-11T02:36:10.539Z,99312.06
2022-12-11T02:38:41.700Z,99312.84
2022-12-11T02:41:10.448Z,99302.69
2022-12-11T02:43:38.213Z,99315.59
2022-12-11T02:46:07.344Z,99310.81
2022-12-11T02:48:34.685Z,99305.00
2022-12-11T02:51:03.086Z,99319.59
2022-12-11T02:53:32.475Z,99314.16
2022-12-11T02:56:06.587Z,99322.84
2022-12-11T02:58:34.336Z,99315.56
2022-12-11T03:01:00.914Z,99312.00
2022-12-11T03:03:30.676Z,99307.84
2022-12-11T03:05:57.058Z,99316.56
2022-12-11T03:08:23.452Z,99321.78
2022-12-11T03:10:50.204Z,99320.09
2022-12-11T03:13:19.267Z,99316.19
2022-12-11T03:16:24.054Z,99318.03
2022-12-11T03:19:05.852Z,99322.34
2022-12-11T03:21:38.885Z,99314.69
2022-12-11T03:24:13.692Z,99316.19
2022-12-11T03:26:43.890Z,99317.47
2022-12-11T03:29:15.651Z,99316.38
2022-12-11T03:32:13.506Z,99320.84
2022-12-11T03:35:01.952Z,99326.22
2022-12-11T03:37:32.746Z,99323.06
2022-12-11T03:40:06.334Z,99314.69
2022-12-11T03:42:34.001Z,99326.78
2022-12-11T03:45:04.451Z,99328.63
2022-12-11T03:47:32.305Z,99336.38
2022-12-11T03:50:00.653Z,99333.47
2022-12-11T03:52:29.088Z,99332.25
2022-12-11T03:54:59.704Z,99338.22
2022-12-11T03:57:30.417Z,99335.72
2022-12-11T03:59:57.303Z,99327.34
2022-12-11T04:02:23.958Z,99326.22
2022-12-11T04:04:50.420Z,99319.25
2022-12-11T04:07:17.002Z,99316.38
2022-12-11T04:09:43.399Z,99325.09
2022-12-11T04:12:09.791Z,99332.44
2022-12-11T04:14:54.805Z,99329.41
2022-12-11T04:17:39.617Z,99329.03
2022-12-11T04:20:25.295Z,99325.00
2022-12-11T04:23:10.179Z,99338.66
2022-12-11T04:25:36.561Z,99332.56
2022-12-11T04:28:02.971Z,99337.94
2022-12-11T04:30:33.951Z,99334.22
2022-12-11T04:33:00.737Z,99334.03
2022-12-11T04:35:27.085Z,99330.53
2022-12-11T04:37:53.487Z,99331.50
2022-12-11T04:40:20.538Z,99332.19
2022-12-11T04:42:47.036Z,99323.06
2022-12-11T04:45:13.810Z,99324.22
2022-12-11T04:47:40.946Z,99319.56
2022-12-11T04:50:09.900Z,99316.59
2022-12-11T04:52:36.290Z,99319.94
2022-12-11T04:55:05.401Z,99319.56
2022-12-11T04:57:31.771Z,99328.66
2022-12-11T04:59:58.155Z,99321.81
2022-12-11T05:02:24.572Z,99316.03
2022-12-11T05:04:50.940Z,99312.34
2022-12-11T05:07:17.327Z,99316.59
2022-12-11T05:09:43.690Z,99310.66
2022-12-11T05:12:10.140Z,99306.03
2022-12-11T05:14:36.550Z,99301.47
2022-12-11T05:17:03.040Z,99299.88
2022-12-11T05:19:29.461Z,99304.16
2022-12-11T05:21:55.823Z,99292.09
2022-12-11T05:24:22.254Z,99290.88
2022-12-11T05:26:48.633Z,99297.47
2022-12-11T05:29:15.001Z,99308.06
2022-12-11T05:31:41.487Z,99301.56
2022-12-11T05:34:08.129Z,99304.19
2022-12-11T05:36:34.865Z,99320.72
2022-12-11T05:39:01.839Z,99295.38
2022-12-11T05:41:30.158Z,99302.13
2022-12-11T05:43:56.736Z,99298.78
2022-12-11T05:46:25.963Z,99294.34
2022-12-11T05:48:56.283Z,99292.13
2022-12-11T05:51:23.486Z,99283.19
2022-12-11T05:53:52.275Z,99295.44
2022-12-11T05:56:21.594Z,99301.19
2022-12-11T05:58:49.212Z,99295.81
2022-12-11T06:01:33.747Z,99314.47
2022-12-11T06:04:01.116Z,99308.28
2022-12-11T06:06:28.583Z,99303.63
2022-12-11T06:08:57.583Z,99289.69
2022-12-11T06:11:25.808Z,99297.47
2022-12-11T06:13:52.779Z,99299.13
2022-12-11T06:16:19.548Z,99294.50
2022-12-11T06:18:46.362Z,99296.19
2022-12-11T06:21:19.420Z,99304.25
2022-12-11T06:23:47.267Z,99302.38
2022-12-11T06:26:15.316Z,99309.53
2022-12-11T06:28:41.808Z,99315.25
2022-12-11T06:31:08.397Z,99304.69
2022-12-11T06:33:35.606Z,99291.81
2022-12-11T06:36:07.457Z,99317.84
2022-12-11T06:38:33.865Z,99310.44
2022-12-11T06:41:04.629Z,99319.16
2022-12-11T06:43:38.725Z,99313.03
2022-12-11T06:46:16.382Z,99324.59
2022-12-11T06:48:43.970Z,99302.34
2022-12-11T06:51:15.947Z,99302.44
2022-12-11T06:53:42.699Z,99303.94
2022-12-11T06:56:11.664Z,99306.16
2022-12-11T06:58:39.940Z,99314.50
2022-12-11T07:01:15.112Z,99309.31
2022-12-11T07:03:41.584Z,99322.25
2022-12-11T07:06:08.095Z,99329.13
2022-12-11T07:08:34.877Z,99319.69
2022-12-11T07:11:09.656Z,99322.09
2022-12-11T07:13:36.166Z,99331.56
2022-12-11T07:16:04.550Z,99338.41
2022-12-11T07:18:34.536Z,99332.19
2022-12-11T07:21:01.059Z,99331.19
2022-12-11T07:23:28.383Z,99319.16
2022-12-11T07:25:55.547Z,99327.69
2022-12-11T07:28:22.170Z,99324.53
2022-12-11T07:30:48.929Z,99326.19
2022-12-11T07:33:15.963Z,99326.00
2022-12-11T07:35:42.588Z,99336.56
2022-12-11T07:38:08.973Z,99337.78
2022-12-11T07:40:35.317Z,99352.53
2022-12-11T07:43:01.681Z,99334.72
2022-12-11T07:45:28.175Z,99338.41
2022-12-11T07:47:54.584Z,99335.63
2022-12-11T07:50:21.008Z,99339.13
2022-12-11T07:52:47.343Z,99337.69
2022-12-11T07:55:13.825Z,99334.16
2022-12-11T07:57:40.613Z,99338.06
2022-12-11T08:00:07.689Z,99343.94
2022-12-11T08:02:37.235Z,99338.59
2022-12-11T08:05:04.531Z,99345.47
2022-12-11T08:07:30.893Z,99349.53
2022-12-11T08:09:57.224Z,99351.59
2022-12-11T08:12:23.594Z,99350.31
2022-12-11T08:14:49.955Z,99342.94
2022-12-11T08:17:16.306Z,99336.63
2022-12-11T08:19:42.705Z,99351.19
2022-12-11T08:22:13.204Z,99333.38
2022-12-11T08:24:39.635Z,99342.66
2022-12-11T08:27:08.494Z,99339.28
2022-12-11T08:29:34.850Z,99353.59
2022-12-11T08:32:01.339Z,99342.66
2022-12-11T08:34:27.716Z,99339.47
2022-12-11T08:36:54.109Z,99343.00
2022-12-11T08:39:20.460Z,99347.44
2022-12-11T08:41:46.923Z,99338.63
2022-12-11T08:44:16.625Z,99355.22
2022-12-11T08:46:43.872Z,99328.84
2022-12-11T08:49:10.379Z,99332.03
2022-12-11T08:51:36.726Z,99328.91
2022-12-11T08:54:03.218Z,99329.09
2022-12-11T08:56:30.385Z,99336.28
2022-12-11T08:59:00.576Z,99339.47
2022-12-11T09:01:27.858Z,99341.34
2022-12-11T09:03:56.493Z,99333.09
2022-12-11T09:06:25.516Z,99336.88
2022-12-11T09:08:53.507Z,99339.47
2022-12-11T09:11:23.861Z,99335.97
2022-12-11T09:13:50.527Z,99346.06
2022-12-11T09:16:18.985Z,99349.50
2022-12-11T09:18:47.331Z,99341.34
2022-12-11T09:21:18.494Z,99350.25
2022-12-11T09:23:45.896Z,99343.78
2022-12-11T09:26:15.530Z,99338.94
2022-12-11T09:28:46.510Z,99333.38
2022-12-11T09:31:16.536Z,99342.75
2022-12-11T09:33:43.639Z,99338.97
2022-12-11T09:36:10.706Z,99333.75
2022-12-11T09:38:37.502Z,99329.72
2022-12-11T09:41:21.921Z,99335.97
2022-12-11T09:44:03.574Z,99326.53
2022-12-11T09:46:34.354Z,99325.34
2022-12-11T09:49:03.048Z,99324.53
2022-12-11T09:51:47.788Z,99332.56
2022-12-11T09:54:15.074Z,99330.53
2022-12-11T09:56:57.328Z,99329.59
2022-12-11T09:59:43.330Z,99329.53
2022-12-11T10:02:35.576Z,99328.97
2022-12-11T10:05:31.224Z,99337.91
2022-12-11T10:08:05.641Z,99324.63
2022-12-11T10:10:51.224Z,99323.59
2022-12-11T10:13:54.741Z,99324.81
2022-12-11T10:16:32.131Z,99321.97
2022-12-11T10:18:58.582Z,99306.47
2022-12-11T10:21:26.293Z,99304.50
2022-12-11T10:23:58.325Z,99306.56
2022-12-11T10:26:24.793Z,99304.50
2022-12-11T10:28:51.275Z,99289.13
2022-12-11T10:31:49.509Z,99292.09
2022-12-11T10:34:28.517Z,99295.81
2022-12-11T10:37:00.312Z,99290.06
2022-12-11T10:39:26.953Z,99299.44
2022-12-11T10:41:55.239Z,99300.16
2022-12-11T10:44:21.539Z,99307.22
2022-12-11T10:47:01.447Z,99296.38
2022-12-11T10:49:30.480Z,99288.41
2022-12-11T10:51:58.225Z,99283.69
2022-12-11T10:54:38.189Z,99277.94
2022-12-11T10:57:07.496Z,99285.97
2022-12-11T10:59:37.330Z,99277.81
2022-12-11T11:02:06.468Z,99275.97
2022-12-11T11:04:36.859Z,99278.13
2022-12-11T11:07:12.902Z,99275.41
2022-12-11T11:09:40.065Z,99271.72
2022-12-11T11:12:22.009Z,99273.56
2022-12-11T11:15:05.879Z,99257.34
2022-12-11T11:17:35.388Z,99262.59
2022-12-11T11:20:12.852Z,99253.88
2022-12-11T11:22:45.315Z,99250.38
2022-12-11T11:25:26.413Z,99252.78
2022-12-11T11:28:02.392Z,99248.16
2022-12-11T11:30:31.717Z,99257.34
2022-12-11T11:33:02.242Z,99258.72
2022-12-11T11:35:31.213Z,99254.63
2022-12-11T11:38:18.507Z,99260.19
2022-12-11T11:40:49.830Z,99246.84
2022-12-11T11:43:29.123Z,99251.50
2022-12-11T11:46:02.631Z,99246.66
2022-12-11T11:48:53.667Z,99234.41
2022-12-11T11:51:27.152Z,99234.41
2022-12-11T11:53:57.917Z,99229.22
2022-12-11T11:56:36.224Z,99237.69
2022-12-11T11:59:25.123Z,99230.72
2022-12-11T12:01:55.433Z,99222.09
2022-12-11T12:04:22.486Z,99218.56
2022-12-11T12:06:57.895Z,99214.59
2022-12-11T12:09:53.376Z,99215.16
2022-12-11T12:12:45.321Z,99210.78
2022-12-11T12:15:34.839Z,99216.03
2022-12-11T12:18:11.908Z,99214.97
2022-12-11T12:20:51.944Z,99211.13
2022-12-11T12:23:53.830Z,99203.25
2022-12-11T12:26:32.380Z,99202.88
2022-12-11T12:29:28.708Z,99215.84
2022-12-11T12:32:25.157Z,99213.19
2022-12-11T12:35:23.361Z,99207.88
2022-12-11T12:38:03.470Z,99213.56
2022-12-11T12:40:35.108Z,99205.66
2022-12-11T12:43:36.637Z,99203.06
2022-12-11T12:46:22.733Z,99208.88
2022-12-11T12:48:51.838Z,99205.28
2022-12-11T12:51:18.930Z,99199.44
2022-12-11T12:54:01.436Z,99211.59
2022-12-11T12:56:31.756Z,99209.56
2022-12-11T12:58:58.297Z,99190.09
2022-12-11T13:01:27.351Z,99189.00
2022-12-11T13:04:04.433Z,99187.13
2022-12-11T13:06:37.796Z,99189.19
2022-12-11T13:09:15.006Z,99191.66
2022-12-11T13:11:41.766Z,99182.69
2022-12-11T13:14:27.927Z,99191.97
2022-12-11T13:17:06.077Z,99191.97
2022-12-11T13:19:39.160Z,99181.78
2022-12-11T13:22:14.681Z,99189.38
2022-12-11T13:24:57.218Z,99181.59
2022-12-11T13:27:35.693Z,99188.63
2022-12-11T13:30:26.084Z,99198.06
2022-12-11T13:33:03.394Z,99194.00
2022-12-11T13:35:31.487Z,99206.03
2022-12-11T13:38:04.316Z,99194.47
2022-12-11T13:40:42.866Z,99205.03
2022-12-11T13:43:18.391Z,99201.69
2022-12-11T13:45:54.750Z,99203.81
2022-12-11T13:48:28.876Z,99198.81
2022-12-11T13:50:56.812Z,99204.84
2022-12-11T13:53:23.847Z,99202.44
2022-12-11T13:55:59.155Z,99210.03
2022-12-11T13:58:25.853Z,99211.06
2022-12-11T14:01:11.390Z,99202.72
2022-12-11T14:03:54.436Z,99199.47
2022-12-11T14:06:21.297Z,99196.78
2022-12-11T14:08:55.087Z,99197.16
2022-12-11T14:11:24.808Z,99199.47
2022-12-11T14:13:51.192Z,99188.50
2022-12-11T14:16:23.429Z,99195.22
2022-12-11T14:18:51.881Z,99194.19
2022-12-11T14:21:20.727Z,99209.00
2022-12-11T14:24:03.360Z,99209.38
2022-12-11T14:26:34.245Z,99217.16
2022-12-11T14:29:01.026Z,99202.91
2022-12-11T14:31:39.764Z,99199.19
2022-12-11T14:34:12.250Z,99205.50
2022-12-11T14:36:39.556Z,99210.31
2022-12-11T14:39:12.405Z,99202.44
2022-12-11T14:41:45.960Z,99212.34
2022-12-11T14:44:17.708Z,99201.97
2022-12-11T14:46:48.739Z,99212.53
2022-12-11T14:49:26.765Z,99213.34
2022-12-11T14:51:57.229Z,99231.34
2022-12-11T14:54:51.295Z,99220.06
2022-12-11T14:57:21.379Z,99209.66
2022-12-11T14:59:51.236Z,99217.72
2022-12-11T15:02:28.481Z,99228.03
2022-12-11T15:05:19.935Z,99223.09
2022-12-11T15:07:57.402Z,99228.09
2022-12-11T15:10:31.422Z,99221.25
2022-12-11T15:12:59.047Z,99226.81
2022-12-11T15:15:28.148Z,99226.25
2022-12-11T15:18:16.457Z,99224.94
2022-12-11T15:20:42.879Z,99226.63
2022-12-11T15:23:11.815Z,99222.53
2022-12-11T15:25:50.955Z,99227.91
2022-12-11T15:28:47.000Z,99224.41
2022-12-11T15:31:32.231Z,99220.75
2022-12-11T15:33:59.209Z,99226.44
2022-12-11T15:36:32.165Z,99228.94
2022-12-11T15:38:58.881Z,99219.03
2022-12-11T15:41:25.802Z,99219.28
2022-12-11T15:43:58.505Z,99223.16
2022-12-11T15:46:25.706Z,99215.50
2022-12-11T15:48:52.214Z,99212.72
2022-12-11T15:51:18.699Z,99214.75
2022-12-11T15:53:45.071Z,99214.03
2022-12-11T15:56:17.572Z,99225.84
2022-12-11T15:58:46.330Z,99217.13
2022-12-11T16:01:12.716Z,99211.03
2022-12-11T16:03:39.122Z,99220.66
2022-12-11T16:06:05.711Z,99225.38
2022-12-11T16:08:32.367Z,99224.19
2022-12-11T16:10:58.843Z,99231.03
2022-12-11T16:13:25.276Z,99237.06
2022-12-11T16:15:51.932Z,99225.66
2022-12-11T16:18:21.886Z,99230.19
2022-12-11T16:20:48.891Z,99239.75
2022-12-11T16:23:17.141Z,99230.38
2022-12-11T16:25:45.592Z,99234.38
2022-12-11T16:28:14.039Z,99233.63
2022-12-11T16:30:40.856Z,99237.69
2022-12-11T16:33:12.488Z,99236.03
2022-12-11T16:35:40.095Z,99234.56
2022-12-11T16:38:08.036Z,99242.59
2022-12-11T16:40:34.733Z,99230.66
2022-12-11T16:43:01.348Z,99236.06
2022-12-11T16:45:28.080Z,99232.69
2022-12-11T16:47:55.035Z,99232.50
2022-12-11T16:50:22.444Z,99224.25
2022-12-11T16:52:49.772Z,99225.19
2022-12-11T16:55:16.569Z,99228.44
2022-12-11T16:57:43.337Z,99225.19
2022-12-11T17:00:14.532Z,99225.44
2022-12-11T17:02:41.263Z,99230.56
2022-12-11T17:05:08.237Z,99236.41
2022-12-11T17:07:34.757Z,99229.66
2022-12-11T17:10:02.957Z,99232.34
2022-12-11T17:12:32.835Z,99232.88
2022-12-11T17:14:59.918Z,99233.28
2022-12-11T17:17:26.573Z,99244.53
2022-12-11T17:19:52.970Z,99234.91
2022-12-11T17:22:19.446Z,99230.47
2022-12-11T17:24:45.838Z,99238.25
2022-12-11T17:27:12.369Z,99241.16
2022-12-11T17:29:38.833Z,99235.47
2022-12-11T17:32:05.583Z,99241.63
2022-12-11T17:34:37.930Z,99240.09
2022-12-11T17:37:05.326Z,99233.34
2022-12-11T17:39:31.841Z,99232.31
2022-12-11T17:41:58.273Z,99233.56
2022-12-11T17:44:26.461Z,99239.94
2022-12-11T17:46:52.989Z,99229.56
2022-12-11T17:49:19.756Z,99243.94
2022-12-11T17:51:46.189Z,99239.09
2022-12-11T17:54:12.585Z,99234.91
2022-12-11T17:56:39.091Z,99245.94
2022-12-11T17:59:05.504Z,99234.47
2022-12-11T18:01:32.673Z,99235.66
2022-12-11T18:04:01.416Z,99237.16
2022-12-11T18:06:28.441Z,99238.63
2022-12-11T18:08:54.833Z,99237.88
2022-12-11T18:11:21.709Z,99234.75
2022-12-11T18:13:49.279Z,99239.81
2022-12-11T18:16:28.259Z,99233.19
2022-12-11T18:18:54.887Z,99240.78
2022-12-11T18:21:24.750Z,99234.03
2022-12-11T18:23:51.742Z,99234.38
2022-12-11T18:26:19.967Z,99238.06
2022-12-11T18:28:47.961Z,99238.00
2022-12-11T18:31:15.157Z,99243.25
2022-12-11T18:33:43.676Z,99243.06
2022-12-11T18:36:11.947Z,99241.41
2022-12-11T18:38:39.658Z,99248.25
2022-12-11T18:41:07.792Z,99244.41
2022-12-11T18:43:34.693Z,99235.84
2022-12-11T18:46:05.355Z,99244.22
2022-12-11T18:48:31.765Z,99228.00
2022-12-11T18:50:58.126Z,99231.81
2022-12-11T18:53:24.480Z,99235.69
2022-12-11T18:55:53.485Z,99235.97
2022-12-11T18:58:23.740Z,99238.06
2022-12-11T19:00:50.238Z,99228.72
2022-12-11T19:03:16.592Z,99225.44
2022-12-11T19:05:43.792Z,99221.38
2022-12-11T19:08:13.696Z,99225.56
2022-12-11T19:10:42.624Z,99226.13
2022-12-11T19:13:09.171Z,99219.00
2022-12-11T19:15:41.444Z,99223.06
2022-12-11T19:18:08.097Z,99219.53
2022-12-11T19:20:55.624Z,99224.91
2022-12-11T19:23:30.180Z,99216.22
2022-12-11T19:25:56.555Z,99222.13
2022-12-11T19:28:22.913Z,99217.13
2022-12-11T19:30:49.701Z,99225.47
2022-12-11T19:33:16.743Z,99226.50
2022-12-11T19:35:43.157Z,99222.69
2022-12-11T19:38:09.585Z,99222.69
2022-12-11T19:40:43.599Z,99224.53
2022-12-11T19:43:10.345Z,99224.53
2022-12-11T19:45:37.380Z,99219.19
2022-12-11T19:48:04.243Z,99222.84
2022-12-11T19:50:30.696Z,99229.91
2022-12-11T19:52:57.040Z,99230.38
2022-12-11T19:55:23.417Z,99229.06
2022-12-11T19:57:49.821Z,99230.75
2022-12-11T20:00:16.465Z,99240.09
2022-12-11T20:02:42.995Z,99222.69
2022-12-11T20:05:10.040Z,99227.13
2022-12-11T20:07:36.982Z,99220.38
2022-12-11T20:10:03.607Z,99225.00
2022-12-11T20:12:30.139Z,99226.19
2022-12-11T20:14:56.469Z,99221.38
2022-12-11T20:17:22.953Z,99217.84
2022-12-11T20:19:49.332Z,99232.50
2022-12-11T20:22:15.681Z,99225.72
2022-12-11T20:24:42.052Z,99226.19
2022-12-11T20:27:09.407Z,99218.44
2022-12-11T20:29:35.833Z,99217.50
2022-12-11T20:32:02.270Z,99218.44
2022-12-11T20:34:28.692Z,99222.69
2022-12-11T20:36:56.178Z,99219.34
2022-12-11T20:39:22.841Z,99225.72
2022-12-11T20:41:49.438Z,99229.41
2022-12-11T20:44:15.853Z,99226.00
2022-12-11T20:46:42.211Z,99225.09
2022-12-11T20:49:12.771Z,99225.25
2022-12-11T20:51:40.141Z,99221.38
2022-12-11T20:54:06.626Z,99226.16
2022-12-11T20:56:33.049Z,99225.44
2022-12-11T20:59:00.749Z,99225.44
2022-12-11T21:01:30.026Z,99230.78
2022-12-11T21:03:57.250Z,99218.91
2022-12-11T21:06:32.669Z,99221.34
2022-12-11T21:09:01.681Z,99217.81
2022-12-11T21:11:28.153Z,99216.91
2022-12-11T21:13:55.109Z,99212.81
2022-12-11T21:16:22.118Z,99209.13
2022-12-11T21:18:48.963Z,99218.75
2022-12-11T21:21:16.520Z,99213.38
2022-12-11T21:23:43.593Z,99214.22
2022-12-11T21:26:10.156Z,99202.47
2022-12-11T21:28:36.551Z,99208.41
2022-12-11T21:31:14.368Z,99214.03
2022-12-11T21:33:40.838Z,99204.50
2022-12-11T21:36:09.151Z,99209.19
2022-12-11T21:38:35.501Z,99208.84
2022-12-11T21:41:13.505Z,99206.53
2022-12-11T21:44:00.495Z,99206.44
2022-12-11T21:46:28.225Z,99203.19
2022-12-11T21:48:54.954Z,99197.81
2022-12-11T21:51:34.080Z,99205.19
2022-12-11T21:54:04.093Z,99194.47
2022-12-11T21:56:31.912Z,99191.16
2022-12-11T21:58:58.435Z,99187.25
2022-12-11T22:01:27.741Z,99191.72
2022-12-11T22:03:54.553Z,99185.25
2022-12-11T22:06:21.218Z,99188.97
2022-12-11T22:08:49.132Z,99194.47
2022-12-11T22:11:21.583Z,99192.28
2022-12-11T22:13:48.086Z,99194.13
2022-12-11T22:16:14.603Z,99200.81
2022-12-11T22:18:41.167Z,99195.63
2022-12-11T22:21:07.637Z,99198.25
2022-12-11T22:23:34.016Z,99191.56
2022-12-11T22:26:00.556Z,99191.91
2022-12-11T22:28:27.677Z,99192.84
2022-12-11T22:30:54.254Z,99188.19
2022-12-11T22:33:20.706Z,99197.63
2022-12-11T22:35:47.170Z,99184.41
2022-12-11T22:38:13.533Z,99186.91
2022-12-11T22:40:41.450Z,99190.53
2022-12-11T22:43:07.876Z,99183.94
2022-12-11T22:45:38.781Z,99191.44
2022-12-11T22:48:06.252Z,99197.28
2022-12-11T22:50:32.800Z,99189.97
2022-12-11T22:52:59.139Z,99185.53
2022-12-11T22:55:25.946Z,99191.56
2022-12-11T22:57:52.292Z,99195.44
2022-12-11T23:00:18.934Z,99199.50
2022-12-11T23:02:45.410Z,99196.44
2022-12-11T23:05:12.409Z,99204.69
2022-12-11T23:07:39.422Z,99203.19
2022-12-11T23:10:08.053Z,99194.47
2022-12-11T23:12:35.229Z,99195.97
2022-12-11T23:15:02.531Z,99199.16
2022-12-11T23:17:29.017Z,99191.03
2022-12-11T23:19:55.419Z,99191.63
2022-12-11T23:22:21.775Z,99212.19
2022-12-11T23:24:48.293Z,99207.00
2022-12-11T23:27:15.246Z,99202.81
2022-12-11T23:29:41.901Z,99210.44
2022-12-11T23:32:08.265Z,99213.56
2022-12-11T23:34:34.615Z,99213.38
2022-12-11T23:37:00.987Z,99214.88
2022-12-11T23:39:27.361Z,99211.72
2022-12-11T23:41:53.746Z,99205.69
2022-12-11T23:44:20.078Z,99206.88
2022-12-11T23:46:46.443Z,99207.84
2022-12-11T23:49:12.780Z,99208.19
2022-12-11T23:51:39.144Z,99211.72
2022-12-11T23:54:05.637Z,99202.09
2022-12-11T23:56:32.083Z,99203.66
2022-12-11T23:58:59.261Z,99204.41
